createdAt,value
2019-02-21T00:02:10.200Z,58.66
2019-02-21T00:04:42.324Z,58.48
2019-02-21T00:07:14.096Z,58.63
2019-02-21T00:09:42.627Z,58.39
2019-02-21T00:12:13.074Z,58.84
2019-02-21T00:14:41.642Z,59.20
2019-02-21T00:17:13.286Z,58.92
2019-02-21T00:19:42.210Z,58.57
2019-02-21T00:22:15.604Z,58.58
2019-02-21T00:34:56.143Z,59.92
2019-02-21T00:40:31.274Z,59.17
2019-02-21T00:43:33.545Z,58.79
2019-02-21T00:46:06.124Z,58.99
2019-02-21T00:51:54.161Z,59.83
2019-02-21T00:54:53.651Z,59.97
2019-02-21T01:00:49.719Z,59.67
2019-02-21T01:03:18.590Z,59.50
2019-02-21T01:06:18.055Z,59.35
2019-02-21T01:11:39.875Z,59.09
2019-02-21T01:19:52.494Z,58.67
2019-02-21T01:25:11.965Z,58.60
2019-02-21T01:27:50.919Z,58.55
2019-02-21T01:30:19.696Z,58.68
2019-02-21T01:32:48.251Z,59.30
2019-02-21T01:35:16.718Z,59.60
2019-02-21T01:37:45.212Z,59.41
2019-02-21T01:40:13.641Z,59.64
2019-02-21T01:42:42.174Z,59.77
2019-02-21T01:45:13.171Z,59.68
2019-02-21T01:47:41.725Z,59.85
2019-02-21T01:50:12.571Z,59.88
2019-02-21T01:52:41.056Z,59.65
2019-02-21T01:55:11.378Z,59.52
2019-02-21T01:57:39.991Z,59.26
2019-02-21T02:00:14.742Z,59.23
2019-02-21T02:02:43.265Z,59.17
2019-02-21T02:05:11.648Z,59.06
2019-02-21T02:07:40.482Z,58.95
2019-02-21T02:10:08.966Z,58.96
2019-02-21T02:12:37.583Z,58.87
2019-02-21T02:15:09.873Z,58.91
2019-02-21T02:20:36.212Z,59.00
2019-02-21T02:23:04.543Z,59.12
2019-02-21T02:25:33.053Z,59.14
2019-02-21T02:28:01.799Z,59.22
2019-02-21T02:30:30.278Z,59.03
2019-02-21T02:32:58.702Z,59.03
2019-02-21T02:35:27.936Z,58.78
2019-02-21T02:37:56.898Z,58.79
2019-02-21T02:40:25.374Z,58.61
2019-02-21T02:42:54.132Z,58.51
2019-02-21T02:45:22.590Z,58.43
2019-02-21T02:47:50.998Z,58.56
2019-02-21T02:50:19.795Z,58.62
2019-02-21T02:52:48.536Z,58.37
2019-02-21T02:55:17.609Z,58.37
2019-02-21T02:57:46.077Z,58.42
2019-02-21T03:00:17.531Z,58.50
2019-02-21T03:02:46.191Z,58.31
2019-02-21T03:05:14.620Z,58.33
2019-02-21T03:07:43.430Z,58.06
2019-02-21T03:10:14.019Z,57.79
2019-02-21T03:12:42.990Z,57.67
2019-02-21T03:15:13.554Z,58.03
2019-02-21T03:17:42.041Z,58.54
2019-02-21T03:20:10.563Z,58.52
2019-02-21T03:22:39.215Z,58.64
2019-02-21T03:25:07.595Z,58.47
2019-02-21T03:27:36.044Z,58.44
2019-02-21T03:30:11.963Z,58.78
2019-02-21T03:32:38.448Z,58.83
2019-02-21T03:35:07.278Z,58.84
2019-02-21T03:37:36.288Z,58.74
2019-02-21T03:40:06.052Z,58.54
2019-02-21T03:42:34.822Z,58.45
2019-02-21T03:45:05.202Z,58.44
2019-02-21T03:47:41.333Z,58.44
2019-02-21T03:50:09.797Z,58.27
2019-02-21T03:52:52.872Z,58.10
2019-02-21T03:55:21.686Z,58.18
2019-02-21T03:57:56.693Z,57.93
2019-02-21T04:00:25.525Z,57.81
2019-02-21T04:02:54.045Z,57.99
2019-02-21T04:05:23.091Z,58.59
2019-02-21T04:07:53.119Z,59.32
2019-02-21T04:10:21.589Z,59.81
2019-02-21T04:12:50.704Z,60.25
2019-02-21T04:15:22.286Z,60.51
2019-02-21T04:17:52.164Z,60.34
2019-02-21T04:20:21.836Z,60.08
2019-02-21T04:22:50.823Z,59.86
2019-02-21T04:25:19.305Z,59.66
2019-02-21T04:27:47.867Z,59.71
2019-02-21T04:30:18.750Z,59.42
2019-02-21T04:32:47.949Z,59.34
2019-02-21T04:35:16.446Z,60.25
2019-02-21T04:37:46.931Z,59.90
2019-02-21T04:40:15.373Z,60.07
2019-02-21T04:42:59.830Z,59.94
2019-02-21T04:48:08.603Z,59.62
2019-02-21T04:50:37.441Z,60.02
2019-02-21T04:53:07.614Z,60.49
2019-02-21T04:55:37.552Z,60.42
2019-02-21T04:58:27.955Z,60.02
2019-02-21T05:01:29.855Z,60.09
2019-02-21T07:29:17.316Z,60.18
2019-02-21T07:44:22.701Z,58.70
2019-02-21T07:46:23.364Z,58.18
2019-02-21T07:49:32.679Z,57.31
2019-02-21T07:56:00.407Z,57.54
2019-02-21T07:58:57.585Z,57.90
2019-02-21T08:02:03.181Z,58.11
2019-02-21T08:13:47.646Z,56.31
2019-02-21T08:16:21.689Z,55.79
2019-02-21T08:18:58.360Z,55.55
2019-02-21T08:21:31.194Z,55.11
2019-02-21T08:24:03.444Z,54.60
2019-02-21T08:26:33.732Z,54.60
2019-02-21T08:29:13.190Z,54.24
2019-02-21T08:31:51.210Z,54.24
2019-02-21T08:34:48.724Z,53.98
2019-02-21T08:37:41.279Z,53.82
2019-02-21T08:40:49.263Z,52.92
2019-02-21T08:43:50.138Z,53.44
2019-02-21T08:46:21.338Z,53.23
2019-02-21T08:52:26.402Z,52.41
2019-02-21T09:10:24.426Z,55.28
2019-02-21T09:16:29.389Z,56.26
2019-02-21T09:20:10.967Z,56.71
2019-02-21T09:22:14.705Z,55.47
2019-02-21T09:27:50.367Z,54.22
2019-02-21T09:30:52.622Z,54.70
2019-02-21T09:38:52.315Z,56.41
2019-02-21T09:47:03.062Z,53.89
2019-02-21T10:05:25.318Z,50.18
2019-02-21T10:07:51.965Z,47.79
2019-02-21T10:11:11.634Z,49.30
2019-02-21T10:13:43.977Z,51.17
2019-02-21T10:16:34.880Z,51.28
2019-02-21T11:58:28.001Z,38.16
2019-02-21T12:08:20.271Z,38.91
2019-02-21T12:17:01.402Z,37.43
2019-02-21T12:29:45.927Z,38.47
2019-02-21T12:59:29.884Z,40.70
2019-02-21T14:28:32.944Z,47.79
2019-02-21T14:31:43.545Z,47.75
2019-02-21T14:33:55.966Z,47.57
2019-02-21T14:36:36.527Z,47.92
2019-02-21T14:39:10.625Z,47.53
2019-02-21T14:41:43.829Z,47.54
2019-02-21T14:44:15.433Z,47.94
2019-02-21T14:46:50.078Z,47.59
2019-02-21T14:49:19.117Z,47.10
2019-02-21T14:51:51.717Z,47.24
2019-02-21T14:54:25.933Z,47.23
2019-02-21T15:00:31.508Z,47.62
2019-02-21T15:03:38.832Z,47.33
2019-02-21T15:12:59.386Z,47.21
2019-02-21T15:15:37.927Z,47.05
2019-02-21T15:18:21.478Z,47.35
2019-02-21T15:20:56.592Z,47.19
2019-02-21T15:23:36.902Z,47.09
2019-02-21T15:26:14.812Z,47.05
2019-02-21T15:28:53.936Z,47.70
2019-02-21T15:34:31.112Z,48.04
2019-02-21T15:36:59.737Z,48.72
2019-02-21T15:39:30.028Z,48.67
2019-02-21T15:42:01.777Z,48.17
2019-02-21T15:44:35.218Z,47.79
2019-02-21T15:50:33.376Z,47.46
2019-02-21T15:53:35.318Z,47.33
2019-02-21T16:11:34.758Z,49.49
2019-02-21T17:50:05.001Z,50.18
2019-02-21T18:01:48.551Z,52.70
2019-02-21T18:04:24.203Z,53.32
2019-02-21T18:07:02.710Z,53.91
2019-02-21T18:09:32.853Z,55.18
2019-02-21T18:12:04.350Z,55.68
2019-02-21T18:14:37.807Z,56.73
2019-02-21T18:20:25.136Z,55.83
2019-02-21T18:29:11.574Z,56.30
2019-02-21T18:32:00.993Z,55.92
2019-02-21T18:39:26.460Z,55.69
2019-02-21T18:51:38.471Z,55.78
2019-02-21T18:56:27.247Z,57.73
2019-02-21T18:59:04.529Z,57.35
2019-02-21T19:07:42.681Z,57.53
2019-02-21T19:22:21.955Z,57.28
2019-02-21T19:28:39.667Z,57.08
2019-02-21T19:37:03.079Z,56.57
2019-02-21T19:39:53.730Z,56.66
2019-02-21T19:45:57.535Z,57.07
2019-02-21T19:51:35.266Z,56.48
2019-02-21T19:54:36.957Z,56.27
2019-02-21T20:06:07.389Z,55.98
2019-02-21T20:20:40.239Z,55.61
2019-02-21T20:23:45.632Z,55.44
2019-02-21T20:29:52.096Z,55.76
2019-02-21T20:32:35.083Z,56.03
2019-02-21T20:35:11.373Z,55.94
2019-02-21T20:37:48.492Z,56.86
2019-02-21T20:40:33.840Z,56.68
2019-02-21T20:43:05.618Z,56.29
2019-02-21T20:46:20.624Z,56.20
2019-02-21T20:55:11.265Z,56.01
2019-02-21T21:03:38.134Z,57.55
2019-02-21T21:16:12.968Z,60.46
2019-02-21T21:21:32.063Z,60.32
2019-02-21T21:24:09.961Z,60.81
2019-02-21T21:32:42.705Z,62.62
2019-02-21T21:35:40.266Z,63.12
2019-02-21T21:38:24.171Z,62.90
2019-02-21T21:44:13.417Z,64.62
2019-02-21T21:56:03.314Z,66.17
2019-02-21T21:59:04.393Z,66.85
2019-02-21T22:07:41.236Z,66.84
2019-02-21T22:10:10.704Z,66.63
2019-02-21T22:13:11.192Z,67.73
2019-02-21T22:15:48.565Z,68.62
2019-02-21T22:18:27.353Z,69.32
2019-02-21T22:20:57.444Z,69.34
2019-02-21T22:39:15.857Z,69.34
2019-02-21T22:41:38.806Z,69.66
2019-02-21T22:45:30.115Z,69.59
2019-02-21T22:47:08.798Z,69.50
2019-02-21T22:53:37.086Z,69.68
2019-02-21T22:56:18.517Z,70.27
2019-02-21T23:04:42.929Z,70.23
2019-02-21T23:07:35.771Z,70.11
2019-02-21T23:10:07.279Z,70.06
2019-02-21T23:12:41.574Z,70.13
2019-02-21T23:15:30.937Z,69.78
2019-02-21T23:18:06.676Z,69.75
2019-02-21T23:20:39.880Z,69.88
2019-02-21T23:23:09.564Z,70.01
2019-02-21T23:25:49.035Z,70.24
2019-02-21T23:28:21.415Z,70.24
2019-02-21T23:30:50.593Z,70.24
2019-02-21T23:33:28.561Z,70.21
2019-02-21T23:35:58.315Z,70.33
2019-02-21T23:38:28.780Z,71.17
2019-02-21T23:41:01.049Z,70.96
2019-02-21T23:43:42.760Z,70.84
2019-02-21T23:46:13.723Z,70.66
2019-02-21T23:48:48.045Z,70.81
2019-02-21T23:51:19.320Z,70.56
2019-02-21T23:53:49.390Z,70.72
2019-02-21T23:56:27.683Z,70.58
2019-02-21T23:59:02.473Z,70.62
